Huntly, United Kingdom
Current Conditions -  °F | °C
As of 12:50 PM on Saturday 25 Oct 2014 (Local Time) from EGQS Reporting Station
Few Clouds Few Clouds  
Wind Chill: 54°   Ceiling: Unl
Heat Index: 54°   Visibility: 6mi
Dew Point: 41°   Wind: 26mph
Humidity: 62%   Direction: 230°SW
Pressure: 29.44"   Gusts: NA
Location:  57.45°N, 2.79°W
Report Text: EGQS 251150Z 23023KT 9999 FEW030 12/05 Q0997 BLU
Loading
Personal Weather Stations






























Interactive Weather Map
Tropical Storm Tracking
New forecast layout! Learn more

10-Day Weather Forecast

Advertisements
Track Severe Weather on mobile